Time;durP1;ratioP1;P1;durP2;ratioP2;P2;SDS_P1;SDS_P2;PMS_P1;PMS_P2;Temp;Humidity;BMP_temperature;BMP_pressure;BME280_temperature;BME280_humidity;BME280_pressure;Samples;Min_cycle;Max_cycle;Signal;HPM_P1;HPM_P2
2021/05/17 00:01:52;;;;;;;39.75;20.48;;;;;;;13.96;70.30;99064.91;4384120;32;20065;-78
2021/05/17 00:04:28;;;;;;;49.83;22.50;;;;;;;13.85;70.20;99062.81;4380475;32;20059;-78
2021/05/17 00:06:54;;;;;;;45.78;22.95;;;;;;;13.91;70.16;99057.97;4380029;32;20457;-78
2021/05/17 00:09:20;;;;;;;43.33;22.73;;;;;;;13.91;70.42;99055.16;4378907;32;20027;-79
2021/05/17 00:11:46;;;;;;;47.50;22.40;;;;;;;13.95;69.96;99072.66;4377921;32;20498;-79
2021/05/17 00:14:11;;;;;;;43.50;22.15;;;;;;;13.86;69.75;99072.03;4379690;32;20107;-78
2021/05/17 00:16:37;;;;;;;44.53;21.75;;;;;;;13.82;69.55;99069.47;4374978;32;20015;-78
2021/05/17 00:19:04;;;;;;;45.97;19.73;;;;;;;13.71;70.24;99071.37;4377083;32;20030;-78
2021/05/17 00:21:30;;;;;;;43.75;19.90;;;;;;;13.75;69.54;99075.53;4378404;32;20145;-79
2021/05/17 00:23:56;;;;;;;37.65;18.85;;;;;;;13.78;69.24;99077.38;4383903;32;20019;-78
2021/05/17 00:26:22;;;;;;;41.10;18.60;;;;;;;13.76;69.38;99079.16;4378263;32;20094;-79
2021/05/17 00:28:48;;;;;;;42.75;17.85;;;;;;;13.69;69.22;99086.03;4378750;32;20120;-78
2021/05/17 00:31:14;;;;;;;42.35;17.40;;;;;;;13.44;70.02;99080.41;4380990;32;20053;-79
2021/05/17 00:33:40;;;;;;;33.95;15.98;;;;;;;13.50;69.64;99087.63;4378547;32;20032;-78
2021/05/17 00:36:06;;;;;;;34.25;14.13;;;;;;;13.41;69.86;99096.28;4382783;32;20027;-79
2021/05/17 00:38:32;;;;;;;27.00;13.30;;;;;;;13.49;69.51;99088.91;4382156;32;20047;-78
2021/05/17 00:40:58;;;;;;;27.83;12.55;;;;;;;13.49;69.23;99093.78;4381401;32;20133;-78
2021/05/17 00:43:31;;;;;;;27.98;11.55;;;;;;;13.51;69.08;99097.69;4378378;32;20082;-78
2021/05/17 00:45:57;;;;;;;24.70;11.30;;;;;;;13.53;68.74;99103.59;4377111;32;20136;-78
2021/05/17 00:48:23;;;;;;;26.67;12.00;;;;;;;13.52;68.18;99093.56;4379718;32;20064;-78
2021/05/17 00:50:50;;;;;;;23.73;11.70;;;;;;;13.58;68.33;99104.94;4378794;32;20031;-78
2021/05/17 00:53:16;;;;;;;27.13;10.15;;;;;;;13.41;68.28;99106.81;4383884;32;20073;-78
2021/05/17 00:55:44;;;;;;;25.37;11.32;;;;;;;13.46;68.14;99106.09;4383435;32;20030;-78
2021/05/17 00:58:10;;;;;;;21.48;10.07;;;;;;;13.40;68.17;99100.38;4378470;32;20105;-79
2021/05/17 01:00:37;;;;;;;21.85;11.38;;;;;;;13.39;68.09;99110.13;4380397;32;20081;-78
2021/05/17 01:03:05;;;;;;;21.67;11.23;;;;;;;13.39;68.35;99107.31;4348833;32;21172;-79
2021/05/17 01:05:31;;;;;;;21.95;10.98;;;;;;;13.44;67.94;99112.22;4347979;32;20090;-78
2021/05/17 01:07:57;;;;;;;19.65;10.70;;;;;;;13.39;67.93;99107.31;4345616;32;20039;-78
2021/05/17 01:10:26;;;;;;;22.08;11.12;;;;;;;13.31;68.58;99109.00;4349457;32;20118;-78
2021/05/17 01:12:52;;;;;;;25.48;11.63;;;;;;;13.28;68.79;99112.03;4348178;32;20053;-78
2021/05/17 01:15:19;;;;;;;23.62;11.15;;;;;;;13.28;68.66;99120.50;4349395;32;20074;-78
2021/05/17 01:17:45;;;;;;;23.73;11.10;;;;;;;13.25;68.93;99122.28;4352744;32;20404;-79
2021/05/17 01:23:19;;;;;;;22.62;11.93;;;;;;;13.69;68.14;99134.06;3982140;32;15158731;-77
2021/05/17 01:25:35;;;;;;;26.37;12.32;;;;;;;13.69;68.14;99134.06;4438987;32;20080;-77
2021/05/17 01:28:03;;;;;;;23.30;12.37;;;;;;;13.25;69.01;99135.62;4439567;32;20122;-77
2021/05/17 01:30:28;;;;;;;22.73;11.90;;;;;;;13.20;69.28;99122.22;4438621;32;20038;-77
2021/05/17 01:32:55;;;;;;;26.73;12.80;;;;;;;13.32;69.17;99138.03;4439703;32;20424;-78
2021/05/17 01:35:22;;;;;;;24.85;12.10;;;;;;;13.35;68.45;99132.16;4440911;32;20077;-78
2021/05/17 01:37:49;;;;;;;23.58;12.60;;;;;;;13.46;68.38;99137.94;4438227;32;20137;-77
2021/05/17 01:40:19;;;;;;;22.17;11.12;;;;;;;13.38;68.24;99130.41;4439739;32;20030;-77
2021/05/17 01:42:46;;;;;;;27.70;12.57;;;;;;;13.42;67.85;99140.22;4438022;32;20089;-77
2021/05/17 01:45:12;;;;;;;23.70;13.18;;;;;;;13.43;68.29;99141.78;4438461;32;20055;-77
2021/05/17 01:47:40;;;;;;;30.67;13.90;;;;;;;13.31;68.65;99144.94;4437751;32;20366;-77
2021/05/17 01:50:12;;;;;;;25.62;13.27;;;;;;;13.34;68.92;99141.13;4438928;32;20041;-77
2021/05/17 01:52:39;;;;;;;26.55;13.02;;;;;;;13.38;68.71;99148.13;4439848;32;20130;-77
2021/05/17 01:55:08;;;;;;;24.65;13.50;;;;;;;13.30;68.49;99147.00;4439128;32;20065;-77
2021/05/17 01:57:34;;;;;;;23.52;12.65;;;;;;;13.36;68.57;99150.69;4439625;32;20026;-77
2021/05/17 02:00:01;;;;;;;24.83;13.23;;;;;;;13.30;68.67;99152.66;4438474;32;20085;-77
2021/05/17 02:02:28;;;;;;;25.62;12.90;;;;;;;13.37;68.23;99152.22;4422861;32;20082;-77
2021/05/17 02:04:54;;;;;;;27.20;13.82;;;;;;;13.36;67.51;99156.34;4416798;32;20114;-77
2021/05/17 02:07:21;;;;;;;27.00;14.38;;;;;;;13.36;67.99;99159.16;4417691;32;20023;-77
2021/05/17 02:09:53;;;;;;;29.00;16.17;;;;;;;13.38;68.09;99164.31;4420577;32;20095;-77
2021/05/17 02:12:22;;;;;;;34.35;16.83;;;;;;;13.34;68.10;99166.56;4419429;32;20038;-77
2021/05/17 02:14:53;;;;;;;32.03;16.52;;;;;;;13.41;68.26;99164.09;4421695;32;20064;-77
2021/05/17 02:17:21;;;;;;;33.55;18.25;;;;;;;13.47;68.05;99167.75;4417975;32;20078;-77
2021/05/17 02:19:47;;;;;;;33.67;18.65;;;;;;;13.47;68.45;99169.81;4422498;32;20129;-77
2021/05/17 02:22:16;;;;;;;35.53;16.48;;;;;;;13.44;68.62;99171.56;4418240;32;20152;-77
2021/05/17 02:24:45;;;;;;;28.98;16.70;;;;;;;13.52;68.13;99167.06;4417033;32;20107;-76
2021/05/17 02:27:12;;;;;;;31.33;15.63;;;;;;;13.49;68.27;99170.09;4422081;32;20068;-77
2021/05/17 02:29:39;;;;;;;35.50;16.55;;;;;;;13.49;67.84;99170.09;4418669;32;20139;-77
2021/05/17 02:32:05;;;;;;;32.67;15.85;;;;;;;13.47;67.63;99179.06;4417417;32;20057;-77
2021/05/17 02:34:31;;;;;;;30.33;15.20;;;;;;;13.52;67.19;99177.56;4405498;32;20112;-77
2021/05/17 02:36:56;;;;;;;24.08;13.77;;;;;;;13.31;66.96;99178.84;4409736;32;20362;-77
2021/05/17 02:39:22;;;;;;;28.25;15.02;;;;;;;13.57;66.18;99183.28;4409566;32;20026;-77
2021/05/17 02:41:50;;;;;;;30.42;14.00;;;;;;;13.41;66.75;99191.59;4409600;32;20135;-77
2021/05/17 02:44:16;;;;;;;26.60;14.52;;;;;;;13.53;66.74;99187.63;4408636;32;20084;-77
2021/05/17 02:46:41;;;;;;;26.95;13.85;;;;;;;13.46;66.83;99191.63;4412456;32;20121;-77
2021/05/17 02:49:09;;;;;;;25.80;13.60;;;;;;;13.27;67.09;99193.19;4410075;32;20139;-77
2021/05/17 02:51:35;;;;;;;26.23;13.50;;;;;;;13.35;67.37;99194.31;4401360;32;20406;-77
2021/05/17 02:54:14;;;;;;;29.77;15.60;;;;;;;13.29;67.57;99201.94;4408633;32;20084;-77
2021/05/17 02:57:04;;;;;;;24.80;14.18;;;;;;;13.34;67.73;99200.47;4411073;32;20123;-77
2021/05/17 03:02:17;;;;;;;29.65;15.35;;;;;;;13.77;66.40;99207.91;3986364;31;15016390;-76
2021/05/17 03:04:51;;;;;;;23.58;14.10;;;;;;;13.77;66.40;99207.91;4449743;32;20029;-78
2021/05/17 03:07:18;;;;;;;26.45;12.98;;;;;;;13.33;67.05;99207.38;4446163;32;20163;-77
2021/05/17 03:09:44;;;;;;;26.95;14.27;;;;;;;13.25;67.15;99211.91;4451045;32;20041;-78
2021/05/17 03:12:11;;;;;;;25.10;13.88;;;;;;;13.32;67.11;99206.59;4449703;32;20025;-77
2021/05/17 03:14:41;;;;;;;24.58;12.68;;;;;;;13.27;67.12;99206.53;4451938;32;20048;-77
2021/05/17 03:17:10;;;;;;;24.33;13.05;;;;;;;13.19;66.91;99223.13;4450080;32;20041;-77
2021/05/17 03:19:38;;;;;;;21.67;12.05;;;;;;;13.24;66.46;99225.25;4438100;32;20026;-78
2021/05/17 03:22:05;;;;;;;24.50;12.40;;;;;;;13.33;66.50;99227.16;4450170;32;20457;-77
2021/05/17 03:24:34;;;;;;;22.37;12.65;;;;;;;13.33;66.37;99227.97;4445437;32;20093;-77
2021/05/17 03:27:19;;;;;;;27.13;12.65;;;;;;;13.38;66.40;99238.53;4451865;32;20141;-77
2021/05/17 03:29:45;;;;;;;22.80;11.60;;;;;;;13.38;66.13;99237.78;4450386;32;20025;-77
2021/05/17 03:32:11;;;;;;;23.00;12.27;;;;;;;13.28;66.39;99231.47;4447248;32;20037;-77
2021/05/17 03:34:37;;;;;;;22.37;13.10;;;;;;;13.33;66.37;99242.09;4445897;32;20123;-77
2021/05/17 03:37:02;;;;;;;25.85;12.60;;;;;;;13.30;66.66;99243.06;4447444;32;20037;-77
2021/05/17 03:39:29;;;;;;;25.88;12.80;;;;;;;13.32;66.51;99240.50;4450460;32;20070;-77
2021/05/17 03:41:54;;;;;;;24.55;12.43;;;;;;;13.35;66.33;99250.06;4450115;32;20025;-77
2021/05/17 03:44:20;;;;;;;26.10;13.02;;;;;;;13.35;66.38;99258.53;4449342;32;20057;-77
2021/05/17 03:46:46;;;;;;;21.75;11.07;;;;;;;13.36;66.40;99254.44;4450405;32;21236;-77
2021/05/17 03:49:11;;;;;;;24.95;12.75;;;;;;;13.41;66.23;99256.56;4447644;32;20073;-77
2021/05/17 03:51:37;;;;;;;21.92;11.63;;;;;;;13.59;65.71;99256.28;4450194;32;20084;-77
2021/05/17 03:54:03;;;;;;;25.52;12.02;;;;;;;13.61;65.46;99259.38;4447390;32;20069;-77
2021/05/17 03:56:29;;;;;;;22.48;11.70;;;;;;;13.62;65.31;99260.94;4450758;32;20115;-77
2021/05/17 03:58:55;;;;;;;23.95;11.77;;;;;;;13.57;65.63;99261.66;4450187;32;20073;-78
2021/05/17 04:01:20;;;;;;;24.90;12.35;;;;;;;13.49;65.71;99266.16;4444677;32;20147;-77
2021/05/17 04:03:46;;;;;;;22.20;12.15;;;;;;;13.39;65.64;99267.56;4444851;32;20442;-78
2021/05/17 04:14:20;;;;;;;;;;;;;;;12.99;66.91;99282.41;4434992;32;20072;-77
2021/05/17 04:16:46;;;;;;;21.75;11.60;;;;;;;13.19;66.25;99288.09;4434713;32;21274;-77
2021/05/17 04:19:12;;;;;;;23.48;12.50;;;;;;;13.14;66.64;99288.03;4433647;32;20096;-77
2021/05/17 04:21:39;;;;;;;21.75;11.85;;;;;;;13.03;67.04;99282.19;4434696;32;20033;-76
2021/05/17 04:24:05;;;;;;;22.40;12.10;;;;;;;13.19;66.57;99285.28;4436175;32;20042;-77
2021/05/17 04:26:31;;;;;;;25.35;12.32;;;;;;;13.22;66.37;99281.47;4434137;32;20052;-77
2021/05/17 04:28:57;;;;;;;24.10;11.40;;;;;;;13.28;65.82;99287.97;4433138;32;20381;-77
2021/05/17 04:31:23;;;;;;;23.75;12.75;;;;;;;13.10;66.21;99282.56;4436075;32;20080;-77
2021/05/17 04:33:49;;;;;;;21.27;11.93;;;;;;;13.27;66.07;99291.28;4435459;32;20073;-77
2021/05/17 04:36:17;;;;;;;24.05;12.35;;;;;;;13.37;65.61;99299.16;4437268;32;20136;-76
2021/05/17 04:38:42;;;;;;;24.40;12.80;;;;;;;13.40;64.78;99294.56;4437430;32;20213;-77
2021/05/17 04:41:09;;;;;;;25.52;13.38;;;;;;;13.28;65.20;99296.44;4438400;32;20021;-77
2021/05/17 04:43:34;;;;;;;23.62;12.98;;;;;;;13.27;65.28;99303.38;4435519;32;20112;-76
2021/05/17 04:46:00;;;;;;;31.55;12.25;;;;;;;13.40;65.22;99303.81;4439149;32;20211;-77
2021/05/17 04:48:26;;;;;;;28.73;13.07;;;;;;;13.26;65.23;99303.88;4436129;32;20053;-77
2021/05/17 04:50:52;;;;;;;22.30;12.25;;;;;;;13.33;65.50;99304.25;4430614;32;20512;-77
2021/05/17 04:53:17;;;;;;;21.10;11.75;;;;;;;13.44;65.19;99303.62;4434095;32;20047;-77
2021/05/17 04:55:43;;;;;;;28.38;13.10;;;;;;;13.51;64.90;99309.63;4434920;32;20196;-77
2021/05/17 04:58:09;;;;;;;25.17;13.70;;;;;;;13.59;64.57;99324.09;4433848;32;20096;-77
2021/05/17 05:00:36;;;;;;;24.23;13.38;;;;;;;13.66;64.01;99324.47;4435836;32;20465;-78
2021/05/17 05:03:01;;;;;;;22.30;12.77;;;;;;;13.70;63.88;99325.06;4431950;32;20061;-77
2021/05/17 05:05:27;;;;;;;24.95;12.90;;;;;;;13.84;63.19;99327.03;4431264;32;20137;-77
2021/05/17 05:07:53;;;;;;;26.05;14.65;;;;;;;13.77;64.06;99332.31;4431294;32;20081;-77
2021/05/17 05:10:19;;;;;;;23.73;13.73;;;;;;;13.75;64.09;99335.63;4430162;32;20065;-77
2021/05/17 05:12:44;;;;;;;26.98;14.57;;;;;;;13.95;63.46;99344.16;4431374;32;20079;-77
2021/05/17 05:15:11;;;;;;;27.08;14.15;;;;;;;13.84;63.43;99346.81;4434801;32;20059;-77
2021/05/17 05:17:37;;;;;;;28.15;14.45;;;;;;;13.93;63.46;99343.84;4428468;32;20076;-77
2021/05/17 05:20:04;;;;;;;27.00;14.50;;;;;;;14.07;63.25;99343.00;4422688;32;20118;-78
2021/05/17 05:22:31;;;;;;;25.35;14.25;;;;;;;14.03;63.53;99350.16;4419589;32;20324;-77
2021/05/17 05:24:57;;;;;;;25.45;14.38;;;;;;;14.08;63.27;99350.22;4423009;32;20394;-77
2021/05/17 05:32:39;;;;;;;26.45;13.95;;;;;;;13.99;63.09;99361.66;3986064;32;15021827;-77
2021/05/17 05:35:05;;;;;;;26.30;14.40;;;;;;;13.81;63.61;99366.84;4432786;32;20809;-77
2021/05/17 05:37:31;;;;;;;23.65;13.62;;;;;;;13.85;63.77;99367.41;4437222;32;20128;-77
2021/05/17 05:39:57;;;;;;;23.08;12.93;;;;;;;13.76;63.76;99367.53;4433580;32;20096;-77
2021/05/17 05:42:24;;;;;;;28.33;12.80;;;;;;;13.71;64.53;99369.00;4436438;32;20051;-77
2021/05/17 05:44:50;;;;;;;23.38;12.75;;;;;;;13.73;63.98;99374.97;4435613;32;20077;-76
2021/05/17 05:47:17;;;;;;;26.87;13.95;;;;;;;13.82;63.76;99380.47;4435457;32;20081;-77
2021/05/17 05:49:45;;;;;;;28.17;13.35;;;;;;;13.92;63.71;99378.28;4429880;32;20545;-77
2021/05/17 05:52:12;;;;;;;24.35;12.45;;;;;;;13.95;63.58;99383.72;4433913;32;20077;-77
2021/05/17 05:54:38;;;;;;;25.95;14.07;;;;;;;14.04;63.11;99383.59;4432599;32;20029;-77
2021/05/17 05:57:07;;;;;;;27.27;13.73;;;;;;;14.19;63.30;99379.91;4435907;32;20099;-77
2021/05/17 05:59:32;;;;;;;24.45;13.27;;;;;;;14.34;62.66;99391.94;4437380;32;20038;-77
2021/05/17 06:01:59;;;;;;;23.23;11.93;;;;;;;14.51;61.69;99393.69;4425219;32;20068;-77
2021/05/17 06:04:24;;;;;;;25.52;13.00;;;;;;;14.65;61.66;99394.88;4416865;32;20361;-79
2021/05/17 06:06:50;;;;;;;21.65;12.68;;;;;;;14.78;61.26;99386.78;4419773;32;20088;-76
2021/05/17 06:09:16;;;;;;;22.25;12.77;;;;;;;14.89;61.02;99386.91;4419268;32;20038;-77
2021/05/17 06:11:42;;;;;;;22.37;11.88;;;;;;;15.08;60.26;99390.94;4420496;32;20053;-79
2021/05/17 06:14:09;;;;;;;21.85;12.55;;;;;;;15.03;59.82;99392.44;4418630;32;20042;-76
2021/05/17 06:16:35;;;;;;;23.20;12.90;;;;;;;15.24;59.27;99401.63;4420052;32;20530;-79
2021/05/17 06:19:01;;;;;;;20.70;12.35;;;;;;;15.34;59.18;99403.78;4420886;32;20082;-77
2021/05/17 06:21:28;;;;;;;20.55;12.30;;;;;;;15.49;58.89;99395.94;4420423;32;20433;-76
2021/05/17 06:23:57;;;;;;;23.50;12.77;;;;;;;15.52;58.13;99400.59;4419518;32;20699;-79
2021/05/17 06:26:25;;;;;;;24.17;13.25;;;;;;;15.60;57.62;99403.75;4418933;32;20049;-79
2021/05/17 06:28:51;;;;;;;23.92;12.23;;;;;;;15.60;57.77;99409.41;4419757;32;20029;-80
2021/05/17 06:31:17;;;;;;;25.33;13.00;;;;;;;15.68;57.54;99407.69;4420968;32;20588;-80
2021/05/17 06:33:45;;;;;;;25.40;13.15;;;;;;;15.59;57.87;99413.53;4418569;32;20456;-81
2021/05/17 06:36:13;;;;;;;24.73;13.82;;;;;;;15.64;57.11;99418.47;4417952;32;20785;-78
2021/05/17 06:38:40;;;;;;;22.50;13.52;;;;;;;15.63;57.29;99425.44;4414217;32;20126;-79
2021/05/17 06:41:08;;;;;;;24.65;13.38;;;;;;;15.44;57.47;99427.09;4419431;32;20422;-75
2021/05/17 06:43:35;;;;;;;26.08;13.10;;;;;;;15.50;57.49;99431.50;4402115;32;20099;-75
2021/05/17 06:46:03;;;;;;;25.83;14.60;;;;;;;15.53;56.79;99441.84;4410746;32;20091;-78
2021/05/17 06:48:29;;;;;;;24.00;13.27;;;;;;;15.53;56.96;99439.00;4415575;32;20067;-78
2021/05/17 06:50:55;;;;;;;27.87;13.38;;;;;;;15.46;56.92;99435.84;4405776;32;20461;-78
2021/05/17 06:53:24;;;;;;;26.12;12.90;;;;;;;15.40;57.07;99447.16;4402212;32;20077;-78
2021/05/17 06:56:08;;;;;;;22.27;12.65;;;;;;;15.38;57.16;99443.28;4407921;32;20030;-78
2021/05/17 06:58:47;;;;;;;26.83;13.35;;;;;;;15.16;57.83;99454.38;4404210;32;20034;-78
2021/05/17 07:01:15;;;;;;;23.73;12.60;;;;;;;15.20;57.88;99447.22;4402350;32;20134;-78
2021/05/17 07:03:41;;;;;;;23.55;12.77;;;;;;;15.28;58.04;99451.13;4403967;32;20458;-77
2021/05/17 07:06:09;;;;;;;26.42;13.73;;;;;;;15.29;57.72;99457.59;4395466;32;20111;-75
2021/05/17 07:12:03;;;;;;;24.48;12.52;;;;;;;15.23;57.14;99468.88;4403803;32;20058;-76
2021/05/17 07:14:13;;;;;;;20.67;12.57;;;;;;;15.24;57.57;99464.75;4401829;32;20038;-77
2021/05/17 07:16:39;;;;;;;20.42;11.60;;;;;;;15.36;57.63;99465.63;4393629;32;20507;-75
2021/05/17 07:19:04;;;;;;;24.52;12.10;;;;;;;15.60;56.72;99472.59;4401001;32;20099;-77
2021/05/17 07:24:16;;;;;;;24.75;12.75;;;;;;;15.70;56.44;99476.00;4397156;32;20555;-77
2021/05/17 07:26:42;;;;;;;26.92;12.45;;;;;;;15.92;56.14;99479.78;4398511;32;20112;-75
2021/05/17 07:29:10;;;;;;;20.65;11.27;;;;;;;16.05;56.03;99476.53;4398203;32;20081;-77
2021/05/17 07:31:36;;;;;;;28.55;14.15;;;;;;;16.22;55.74;99479.44;4398988;32;20565;-74
2021/05/17 07:34:02;;;;;;;27.75;13.73;;;;;;;16.59;54.11;99485.84;4400556;32;20587;-75
2021/05/17 07:36:27;;;;;;;28.62;12.63;;;;;;;16.59;53.75;99483.00;4398600;32;20477;-76
2021/05/17 07:38:53;;;;;;;24.65;13.05;;;;;;;16.66;53.18;99488.22;4399670;32;20367;-76
2021/05/17 07:41:19;;;;;;;29.15;12.50;;;;;;;17.15;52.52;99501.81;4396921;32;20097;-74
2021/05/17 07:43:46;;;;;;;25.10;12.02;;;;;;;17.55;51.47;99502.16;4400990;32;20077;-75
2021/05/17 07:46:11;;;;;;;31.42;11.52;;;;;;;18.06;50.27;99502.91;4400590;32;20082;-75
2021/05/17 07:49:05;;;;;;;36.30;13.65;;;;;;;18.24;49.26;99499.53;4402645;32;20034;-75
2021/05/17 07:51:25;;;;;;;24.35;12.40;;;;;;;18.44;48.90;99508.56;4400144;32;20103;-76
2021/05/17 07:53:51;;;;;;;26.60;13.13;;;;;;;18.60;48.00;99513.47;4398162;32;20042;-76
2021/05/17 07:56:16;;;;;;;21.83;12.27;;;;;;;18.73;47.94;99507.97;4398899;32;20701;-76
2021/05/17 07:58:43;;;;;;;25.45;12.23;;;;;;;18.82;47.38;99512.59;4401633;32;20703;-75
2021/05/17 08:01:11;;;;;;;22.50;11.68;;;;;;;18.69;47.18;99515.25;4397539;32;20097;-76
2021/05/17 08:03:38;;;;;;;24.45;11.55;;;;;;;18.76;47.33;99514.69;4397009;32;20630;-77
2021/05/17 08:06:03;;;;;;;18.98;11.50;;;;;;;18.84;47.19;99519.31;4400421;32;20425;-76
2021/05/17 08:08:29;;;;;;;17.37;10.48;;;;;;;18.67;46.93;99524.31;4401374;32;20062;-77
2021/05/17 08:10:55;;;;;;;20.85;9.57;;;;;;;18.45;47.14;99520.75;4400306;32;20042;-76
2021/05/17 08:13:21;;;;;;;22.87;11.00;;;;;;;18.48;46.99;99526.19;4395972;32;20103;-76
2021/05/17 08:15:47;;;;;;;18.17;10.07;;;;;;;18.73;46.82;99522.22;4399380;32;20053;-76
2021/05/17 08:18:13;;;;;;;20.25;11.85;;;;;;;18.91;46.72;99532.25;4398959;32;20070;-76
2021/05/17 08:20:39;;;;;;;19.50;11.65;;;;;;;18.84;46.42;99529.94;4401099;32;20467;-76
2021/05/17 08:23:04;;;;;;;21.85;13.40;;;;;;;19.07;46.11;99525.69;4396989;32;20060;-76
2021/05/17 08:25:30;;;;;;;22.73;11.15;;;;;;;19.19;45.80;99538.59;4398920;32;20081;-75
2021/05/17 08:27:56;;;;;;;20.05;11.48;;;;;;;19.31;45.41;99532.34;4400955;32;20066;-78
2021/05/17 08:30:25;;;;;;;19.48;11.35;;;;;;;19.62;44.79;99539.66;4400410;32;20187;-77
2021/05/17 08:32:51;;;;;;;22.87;11.98;;;;;;;19.75;44.23;99537.75;4399329;32;20090;-75
2021/05/17 08:35:16;;;;;;;24.55;12.23;;;;;;;19.78;43.97;99547.31;4397194;32;20046;-76
2021/05/17 08:37:42;;;;;;;21.62;11.80;;;;;;;19.82;44.42;99538.47;4399974;32;20520;-75
2021/05/17 08:40:08;;;;;;;24.95;12.63;;;;;;;19.61;44.98;99536.00;4399189;32;20203;-76
2021/05/17 08:42:34;;;;;;;21.37;12.65;;;;;;;19.48;45.20;99535.84;4396740;32;20081;-76
2021/05/17 08:45:01;;;;;;;23.77;12.23;;;;;;;19.41;45.68;99532.78;4395559;32;20085;-77
2021/05/17 08:47:27;;;;;;;22.33;11.75;;;;;;;19.42;45.48;99534.34;4398896;32;20077;-77
2021/05/17 08:49:53;;;;;;;20.48;11.30;;;;;;;19.80;44.50;99534.06;4399176;32;20050;-77
2021/05/17 08:52:19;;;;;;;24.55;12.13;;;;;;;19.87;44.24;99537.63;4398565;32;20431;-79
2021/05/17 08:54:45;;;;;;;29.52;12.63;;;;;;;20.10;44.03;99550.44;4396045;32;20069;-79
2021/05/17 08:57:10;;;;;;;22.10;11.93;;;;;;;19.97;44.26;99545.34;4397790;32;20457;-77
2021/05/17 08:59:36;;;;;;;21.05;12.10;;;;;;;19.50;44.92;99546.75;4397382;32;20554;-78
2021/05/17 09:02:02;;;;;;;21.70;12.75;;;;;;;19.16;46.78;99548.19;4400888;32;20038;-76
2021/05/17 09:04:28;;;;;;;22.20;12.75;;;;;;;18.99;49.48;99545.41;4398317;32;20084;-77
2021/05/17 09:06:55;;;;;;;21.48;12.37;;;;;;;18.49;52.64;99546.88;4400206;32;20438;-77
2021/05/17 09:09:27;;;;;;;24.25;13.93;;;;;;;18.06;53.07;99543.56;4401468;32;20053;-76
2021/05/17 09:11:57;;;;;;;22.60;13.18;;;;;;;17.41;55.63;99545.81;4397641;32;20880;-75
2021/05/17 09:14:25;;;;;;;24.10;13.55;;;;;;;16.91;57.63;99538.44;4398888;32;20054;-75
2021/05/17 09:16:57;;;;;;;29.30;14.82;;;;;;;16.49;59.47;99547.00;4398277;32;20111;-78
2021/05/17 09:19:25;;;;;;;25.10;13.52;;;;;;;16.36;63.10;99547.44;4395678;32;20438;-76
2021/05/17 09:27:19;;;;;;;30.58;12.45;;;;;;;17.54;60.02;99548.19;3966243;32;15025931;-75
2021/05/17 09:29:49;;;;;;;26.80;13.65;;;;;;;17.54;60.02;99548.19;4418418;32;20343;-76
2021/05/17 09:35:17;;;;;;;23.12;13.10;;;;;;;17.68;59.91;99544.34;3976921;32;15023227;-76
2021/05/17 09:40:23;;;;;;;24.48;11.77;;;;;;;19.14;54.34;99550.78;3982386;32;15022776;-76
2021/05/17 09:43:11;;;;;;;24.55;12.13;;;;;;;19.14;54.34;99550.78;4430357;32;20087;-75
2021/05/17 09:45:39;;;;;;;29.92;11.63;;;;;;;18.82;54.46;99547.56;4431353;32;21696;-77
2021/05/17 09:48:15;;;;;;;20.10;10.38;;;;;;;18.86;54.34;99547.28;4432053;32;20073;-75
2021/05/17 09:53:40;;;;;;;19.83;11.40;;;;;;;19.97;50.60;99548.19;3969005;32;15028545;-74
2021/05/17 09:56:08;;;;;;;29.17;12.57;;;;;;;19.97;50.60;99548.19;4419076;32;20077;-75
2021/05/17 10:01:16;;;;;;;18.27;11.25;;;;;;;20.34;51.78;99562.69;3974433;32;15022760;-75
2021/05/17 10:08:57;;;;;;;27.83;13.48;;;;;;;18.32;55.86;99580.31;3970915;32;15023219;-77
2021/05/17 10:11:26;;;;;;;40.63;15.57;;;;;;;18.32;55.86;99580.31;4423027;32;20090;-76
2021/05/17 10:13:52;;;;;;;42.35;16.35;;;;;;;17.30;67.83;99599.03;4420718;32;20538;-78
2021/05/17 10:16:21;;;;;;;32.25;11.75;;;;;;;15.95;75.36;99622.69;4418900;32;20085;-78
2021/05/17 10:18:47;;;;;;;58.17;12.20;;;;;;;14.42;80.18;99637.25;4419226;32;20776;-78
2021/05/17 10:21:16;;;;;;;30.27;8.32;;;;;;;12.53;94.95;99644.59;4421431;32;20063;-81
2021/05/17 10:23:42;;;;;;;24.67;6.93;;;;;;;10.97;100.00;99650.19;4423201;32;20049;-80
2021/05/17 10:28:52;;;;;;;20.62;8.50;;;;;;;26.93;45.90;99688.03;3981917;32;15027225;-83
2021/05/17 10:31:20;;;;;;;21.65;8.15;;;;;;;26.93;45.90;99688.03;4429764;32;20554;-80
2021/05/17 10:34:08;;;;;;;29.87;6.95;;;;;;;26.63;42.05;99693.78;4428804;32;20127;-82
2021/05/17 10:39:34;;;;;;;14.27;3.35;;;;;;;26.45;39.88;99682.59;3983596;32;15022285;-78
2021/05/17 10:42:41;;;;;;;19.10;4.12;;;;;;;26.88;40.09;99677.44;4436864;32;20037;-82
2021/05/17 10:51:10;;;;;;;22.83;6.70;;;;;;;28.05;36.32;99686.31;3974460;32;15026255;-79
2021/05/17 10:53:56;;;;;;;18.02;5.68;;;;;;;28.05;36.32;99686.31;4425010;32;20083;-79
2021/05/17 10:56:47;;;;;;;18.12;5.78;;;;;;;27.48;38.32;99685.31;4425050;32;20498;-77
2021/05/17 11:02:08;;;;;;;18.23;7.53;;;;;;;27.49;39.56;99677.41;4419698;32;20371;-77
2021/05/17 11:04:37;;;;;;;10.52;3.80;;;;;;;27.81;39.11;99680.41;4415531;32;20457;-79
2021/05/17 11:15:15;;;;;;;13.07;5.53;;;;;;;29.08;38.01;99702.06;3964780;32;15022570;-81
2021/05/17 11:18:02;;;;;;;11.12;4.95;;;;;;;29.08;38.01;99702.06;4407202;32;21190;-84
2021/05/17 11:20:48;;;;;;;8.68;5.22;;;;;;;28.11;37.33;99712.13;4410568;32;20054;-85
2021/05/17 11:36:32;;;;;;;12.52;5.93;;;;;;;31.17;38.21;99708.75;3987748;31;15015985;-80
2021/05/17 11:44:24;;;;;;;11.05;4.93;;;;;;;31.64;37.59;99713.19;3978379;32;15023846;-82
2021/05/17 11:46:55;;;;;;;7.97;4.10;;;;;;;31.64;37.59;99713.19;4434092;32;20076;-84
2021/05/17 11:49:23;;;;;;;10.30;5.03;;;;;;;31.13;38.14;99711.34;4430917;32;20034;-84
2021/05/17 11:51:52;;;;;;;13.93;8.30;;;;;;;31.10;39.18;99708.91;4433316;32;20116;-84
2021/05/17 11:54:19;;;;;;;10.90;4.80;;;;;;;31.59;38.52;99720.81;4429983;32;20377;-81
2021/05/17 11:56:48;;;;;;;6.62;4.12;;;;;;;31.76;38.73;99725.75;4432744;32;20108;-83
2021/05/17 11:59:17;;;;;;;5.65;3.67;;;;;;;32.24;38.39;99720.72;4432201;32;20118;-82
2021/05/17 12:01:45;;;;;;;7.43;3.87;;;;;;;32.12;36.97;99719.81;4423849;32;20046;-82
2021/05/17 12:12:08;;;;;;;4.43;2.45;;;;;;;32.51;34.04;99730.81;3976912;32;15021584;-78
2021/05/17 12:14:35;;;;;;;5.57;2.10;;;;;;;32.51;34.04;99730.81;4425086;32;20104;-80
2021/05/17 12:17:07;;;;;;;3.58;1.87;;;;;;;32.45;34.64;99730.38;4425316;32;20074;-81
2021/05/17 12:19:33;;;;;;;2.90;1.85;;;;;;;33.11;36.40;99733.72;4422052;32;20107;-78
2021/05/17 12:22:05;;;;;;;2.17;1.52;;;;;;;33.05;35.51;99739.09;4426300;32;20105;-80
2021/05/17 12:24:31;;;;;;;4.90;2.53;;;;;;;33.46;34.48;99726.03;4422009;32;20100;-78
2021/05/17 12:27:15;;;;;;;3.92;2.03;;;;;;;32.97;34.35;99733.47;4426642;32;20107;-79
2021/05/17 12:30:05;;;;;;;2.70;1.75;;;;;;;33.43;35.68;99733.87;4422775;32;20119;-84
2021/05/17 12:38:01;;;;;;;2.33;1.70;;;;;;;33.83;31.87;99733.75;3945719;32;15021280;-84
2021/05/17 12:40:44;;;;;;;3.28;1.92;;;;;;;33.83;31.87;99733.75;4405016;32;20076;-87
2021/05/17 12:43:15;;;;;;;3.05;1.90;;;;;;;33.35;33.41;99732.53;4404500;32;20097;-83
2021/05/17 12:50:55;;;;;;;3.42;2.30;;;;;;;33.11;33.61;99739.53;3985261;31;15019931;-85
2021/05/17 12:53:27;;;;;;;3.95;1.95;;;;;;;33.11;33.61;99739.53;4449887;32;20383;-86
2021/05/17 12:55:56;;;;;;;4.82;3.12;;;;;;;32.24;32.49;99738.94;4452209;32;20096;-87
2021/05/17 12:58:31;;;;;;;3.97;2.53;;;;;;;32.21;33.96;99746.00;4455873;32;20512;-87
2021/05/17 13:01:01;;;;;;;3.40;1.80;;;;;;;32.47;30.72;99755.97;4450244;32;20383;-88
2021/05/17 13:06:09;;;;;;;4.00;1.37;;;;;;;32.11;28.71;99759.81;3957863;32;15724345;-86
2021/05/17 13:14:23;;;;;;;3.55;2.65;;;;;;;32.69;28.66;99766.34;3982914;32;15023203;-79
2021/05/17 13:30:24;;;;;;;3.72;1.50;;;;;;;29.42;30.09;99765.16;3965892;32;15032223;-84